sensor_id;sensor_type;location;lat;lon;timestamp;P1;durP1;ratioP1;P2;durP2;ratioP2
74777;SDS011;63298;53.164;8.610;2022-10-19T00:00:19;5.15;;;0.90;;
74777;SDS011;63298;53.164;8.610;2022-10-19T00:02:46;2.78;;;0.90;;
74777;SDS011;63298;53.164;8.610;2022-10-19T00:05:11;2.40;;;1.20;;
74777;SDS011;63298;53.164;8.610;2022-10-19T00:07:36;8.57;;;1.08;;
74777;SDS011;63298;53.164;8.610;2022-10-19T00:10:02;5.32;;;1.38;;
74777;SDS011;63298;53.164;8.610;2022-10-19T00:12:28;3.90;;;1.02;;
74777;SDS011;63298;53.164;8.610;2022-10-19T00:14:54;6.38;;;1.00;;
74777;SDS011;63298;53.164;8.610;2022-10-19T00:17:19;8.05;;;1.08;;
74777;SDS011;63298;53.164;8.610;2022-10-19T00:19:45;4.03;;;1.05;;
74777;SDS011;63298;53.164;8.610;2022-10-19T00:22:10;4.77;;;1.10;;
74777;SDS011;63298;53.164;8.610;2022-10-19T00:24:36;6.68;;;1.25;;
74777;SDS011;63298;53.164;8.610;2022-10-19T00:27:01;3.38;;;1.17;;
74777;SDS011;63298;53.164;8.610;2022-10-19T00:29:27;4.18;;;1.05;;
74777;SDS011;63298;53.164;8.610;2022-10-19T00:31:55;5.78;;;1.25;;
74777;SDS011;63298;53.164;8.610;2022-10-19T00:34:21;6.38;;;1.00;;
74777;SDS011;63298;53.164;8.610;2022-10-19T00:36:47;12.18;;;1.42;;
74777;SDS011;63298;53.164;8.610;2022-10-19T00:39:13;5.93;;;1.05;;
74777;SDS011;63298;53.164;8.610;2022-10-19T00:41:40;5.07;;;1.40;;
74777;SDS011;63298;53.164;8.610;2022-10-19T00:44:56;6.95;;;0.95;;
74777;SDS011;63298;53.164;8.610;2022-10-19T00:49:25;4.45;;;0.98;;
74777;SDS011;63298;53.164;8.610;2022-10-19T00:51:55;2.92;;;0.93;;
74777;SDS011;63298;53.164;8.610;2022-10-19T00:54:25;5.55;;;1.23;;
74777;SDS011;63298;53.164;8.610;2022-10-19T00:56:52;8.43;;;1.30;;
74777;SDS011;63298;53.164;8.610;2022-10-19T00:59:20;5.13;;;1.23;;
74777;SDS011;63298;53.164;8.610;2022-10-19T01:01:48;6.05;;;1.30;;
74777;SDS011;63298;53.164;8.610;2022-10-19T01:04:14;5.97;;;1.33;;
74777;SDS011;63298;53.164;8.610;2022-10-19T01:06:40;2.92;;;0.82;;
74777;SDS011;63298;53.164;8.610;2022-10-19T01:09:08;5.22;;;1.10;;
74777;SDS011;63298;53.164;8.610;2022-10-19T01:22:59;2.88;;;1.10;;
74777;SDS011;63298;53.164;8.610;2022-10-19T01:33:46;3.95;;;0.90;;
74777;SDS011;63298;53.164;8.610;2022-10-19T01:39:12;4.15;;;0.90;;
74777;SDS011;63298;53.164;8.610;2022-10-19T01:41:56;3.88;;;1.00;;
74777;SDS011;63298;53.164;8.610;2022-10-19T01:44:28;9.10;;;1.27;;
74777;SDS011;63298;53.164;8.610;2022-10-19T01:47:05;7.30;;;1.75;;
74777;SDS011;63298;53.164;8.610;2022-10-19T01:49:48;19.00;;;1.67;;
74777;SDS011;63298;53.164;8.610;2022-10-19T01:52:18;6.15;;;1.05;;
74777;SDS011;63298;53.164;8.610;2022-10-19T01:54:47;4.28;;;0.85;;
74777;SDS011;63298;53.164;8.610;2022-10-19T01:57:17;3.58;;;1.10;;
74777;SDS011;63298;53.164;8.610;2022-10-19T01:59:48;8.80;;;1.52;;
74777;SDS011;63298;53.164;8.610;2022-10-19T02:02:15;6.35;;;1.20;;
74777;SDS011;63298;53.164;8.610;2022-10-19T02:04:42;9.05;;;0.98;;
74777;SDS011;63298;53.164;8.610;2022-10-19T02:07:08;10.02;;;0.90;;
74777;SDS011;63298;53.164;8.610;2022-10-19T02:09:35;4.85;;;0.75;;
74777;SDS011;63298;53.164;8.610;2022-10-19T02:12:02;4.55;;;0.95;;
74777;SDS011;63298;53.164;8.610;2022-10-19T02:14:35;2.65;;;0.80;;
74777;SDS011;63298;53.164;8.610;2022-10-19T02:17:06;2.47;;;0.68;;
74777;SDS011;63298;53.164;8.610;2022-10-19T02:19:34;5.80;;;0.73;;
74777;SDS011;63298;53.164;8.610;2022-10-19T02:22:00;3.45;;;0.85;;
74777;SDS011;63298;53.164;8.610;2022-10-19T02:24:25;3.88;;;0.90;;
74777;SDS011;63298;53.164;8.610;2022-10-19T02:26:51;2.42;;;1.08;;
74777;SDS011;63298;53.164;8.610;2022-10-19T02:29:17;4.18;;;0.70;;
74777;SDS011;63298;53.164;8.610;2022-10-19T02:31:43;3.95;;;1.38;;
74777;SDS011;63298;53.164;8.610;2022-10-19T02:34:08;5.88;;;0.85;;
74777;SDS011;63298;53.164;8.610;2022-10-19T02:36:34;8.15;;;1.10;;
74777;SDS011;63298;53.164;8.610;2022-10-19T02:39:00;5.88;;;1.00;;
74777;SDS011;63298;53.164;8.610;2022-10-19T02:44:00;6.32;;;0.70;;
74777;SDS011;63298;53.164;8.610;2022-10-19T02:49:34;4.63;;;0.90;;
74777;SDS011;63298;53.164;8.610;2022-10-19T02:52:04;6.35;;;1.17;;
74777;SDS011;63298;53.164;8.610;2022-10-19T02:54:32;4.47;;;0.60;;
74777;SDS011;63298;53.164;8.610;2022-10-19T02:56:58;14.55;;;1.30;;
74777;SDS011;63298;53.164;8.610;2022-10-19T02:59:24;3.25;;;0.77;;
74777;SDS011;63298;53.164;8.610;2022-10-19T03:01:50;7.13;;;0.75;;
74777;SDS011;63298;53.164;8.610;2022-10-19T03:04:16;6.55;;;1.05;;
74777;SDS011;63298;53.164;8.610;2022-10-19T03:06:41;7.25;;;0.90;;
74777;SDS011;63298;53.164;8.610;2022-10-19T03:09:07;7.32;;;1.30;;
74777;SDS011;63298;53.164;8.610;2022-10-19T03:11:33;2.42;;;0.77;;
74777;SDS011;63298;53.164;8.610;2022-10-19T03:13:58;5.25;;;0.90;;
74777;SDS011;63298;53.164;8.610;2022-10-19T03:16:24;8.68;;;1.33;;
74777;SDS011;63298;53.164;8.610;2022-10-19T03:18:49;4.18;;;0.90;;
74777;SDS011;63298;53.164;8.610;2022-10-19T03:21:16;3.47;;;1.15;;
74777;SDS011;63298;53.164;8.610;2022-10-19T03:23:42;4.70;;;1.05;;
74777;SDS011;63298;53.164;8.610;2022-10-19T03:26:09;1.92;;;0.80;;
74777;SDS011;63298;53.164;8.610;2022-10-19T03:28:38;6.82;;;0.77;;
74777;SDS011;63298;53.164;8.610;2022-10-19T03:31:03;8.40;;;0.85;;
74777;SDS011;63298;53.164;8.610;2022-10-19T03:33:29;2.45;;;0.68;;
74777;SDS011;63298;53.164;8.610;2022-10-19T03:36:14;5.75;;;0.82;;
74777;SDS011;63298;53.164;8.610;2022-10-19T03:38:49;12.15;;;0.93;;
74777;SDS011;63298;53.164;8.610;2022-10-19T03:41:20;4.45;;;1.00;;
74777;SDS011;63298;53.164;8.610;2022-10-19T03:43:47;8.23;;;1.05;;
74777;SDS011;63298;53.164;8.610;2022-10-19T03:46:13;6.57;;;0.95;;
74777;SDS011;63298;53.164;8.610;2022-10-19T03:48:39;7.10;;;1.15;;
74777;SDS011;63298;53.164;8.610;2022-10-19T03:51:05;5.38;;;1.10;;
74777;SDS011;63298;53.164;8.610;2022-10-19T03:53:33;8.10;;;1.33;;
74777;SDS011;63298;53.164;8.610;2022-10-19T03:55:59;5.97;;;1.50;;
74777;SDS011;63298;53.164;8.610;2022-10-19T03:58:32;9.88;;;1.35;;
74777;SDS011;63298;53.164;8.610;2022-10-19T04:00:58;6.28;;;1.08;;
74777;SDS011;63298;53.164;8.610;2022-10-19T04:03:24;4.82;;;1.20;;
74777;SDS011;63298;53.164;8.610;2022-10-19T04:05:50;8.07;;;1.52;;
74777;SDS011;63298;53.164;8.610;2022-10-19T04:08:16;3.97;;;1.38;;
74777;SDS011;63298;53.164;8.610;2022-10-19T04:10:41;3.53;;;1.10;;
74777;SDS011;63298;53.164;8.610;2022-10-19T04:13:07;4.68;;;1.30;;
74777;SDS011;63298;53.164;8.610;2022-10-19T04:15:33;4.53;;;1.13;;
74777;SDS011;63298;53.164;8.610;2022-10-19T04:17:59;4.47;;;0.90;;
74777;SDS011;63298;53.164;8.610;2022-10-19T04:20:25;8.63;;;1.30;;
74777;SDS011;63298;53.164;8.610;2022-10-19T04:22:53;8.18;;;1.35;;
74777;SDS011;63298;53.164;8.610;2022-10-19T04:25:18;6.82;;;1.17;;
74777;SDS011;63298;53.164;8.610;2022-10-19T04:27:44;8.60;;;1.02;;
74777;SDS011;63298;53.164;8.610;2022-10-19T04:30:10;7.88;;;1.27;;
74777;SDS011;63298;53.164;8.610;2022-10-19T04:32:36;11.65;;;1.67;;
74777;SDS011;63298;53.164;8.610;2022-10-19T04:35:01;9.95;;;1.15;;
74777;SDS011;63298;53.164;8.610;2022-10-19T04:37:27;7.90;;;1.27;;
74777;SDS011;63298;53.164;8.610;2022-10-19T04:39:52;6.65;;;1.27;;
74777;SDS011;63298;53.164;8.610;2022-10-19T04:42:20;6.30;;;0.98;;
74777;SDS011;63298;53.164;8.610;2022-10-19T04:44:46;9.88;;;1.83;;
74777;SDS011;63298;53.164;8.610;2022-10-19T04:47:11;15.77;;;2.35;;
74777;SDS011;63298;53.164;8.610;2022-10-19T04:49:37;7.20;;;1.05;;
74777;SDS011;63298;53.164;8.610;2022-10-19T04:52:02;10.23;;;1.20;;
74777;SDS011;63298;53.164;8.610;2022-10-19T04:54:27;5.28;;;1.10;;
74777;SDS011;63298;53.164;8.610;2022-10-19T04:56:52;4.43;;;1.40;;
74777;SDS011;63298;53.164;8.610;2022-10-19T04:59:18;11.88;;;1.63;;
74777;SDS011;63298;53.164;8.610;2022-10-19T05:01:44;11.57;;;1.38;;
74777;SDS011;63298;53.164;8.610;2022-10-19T05:04:09;12.02;;;1.10;;
74777;SDS011;63298;53.164;8.610;2022-10-19T05:06:35;4.68;;;0.80;;
74777;SDS011;63298;53.164;8.610;2022-10-19T05:09:00;5.50;;;1.20;;
74777;SDS011;63298;53.164;8.610;2022-10-19T05:11:25;6.43;;;1.30;;
74777;SDS011;63298;53.164;8.610;2022-10-19T05:13:51;7.88;;;1.65;;
74777;SDS011;63298;53.164;8.610;2022-10-19T05:16:17;5.32;;;1.10;;
74777;SDS011;63298;53.164;8.610;2022-10-19T05:18:46;7.45;;;1.70;;
74777;SDS011;63298;53.164;8.610;2022-10-19T05:21:16;3.83;;;1.40;;
74777;SDS011;63298;53.164;8.610;2022-10-19T05:23:43;10.60;;;1.60;;
74777;SDS011;63298;53.164;8.610;2022-10-19T05:26:09;6.78;;;1.30;;
74777;SDS011;63298;53.164;8.610;2022-10-19T05:28:42;8.90;;;1.65;;
74777;SDS011;63298;53.164;8.610;2022-10-19T05:31:18;8.07;;;1.35;;
74777;SDS011;63298;53.164;8.610;2022-10-19T05:33:44;7.25;;;1.40;;
74777;SDS011;63298;53.164;8.610;2022-10-19T05:38:35;10.02;;;1.38;;
74777;SDS011;63298;53.164;8.610;2022-10-19T05:41:01;8.65;;;1.45;;
74777;SDS011;63298;53.164;8.610;2022-10-19T05:43:26;8.63;;;1.00;;
74777;SDS011;63298;53.164;8.610;2022-10-19T05:45:52;10.50;;;1.30;;
74777;SDS011;63298;53.164;8.610;2022-10-19T05:48:17;7.13;;;1.17;;
74777;SDS011;63298;53.164;8.610;2022-10-19T05:50:51;8.68;;;1.00;;
74777;SDS011;63298;53.164;8.610;2022-10-19T05:55:43;4.88;;;0.93;;
74777;SDS011;63298;53.164;8.610;2022-10-19T05:58:09;9.55;;;1.23;;
74777;SDS011;63298;53.164;8.610;2022-10-19T06:00:34;6.63;;;1.45;;
74777;SDS011;63298;53.164;8.610;2022-10-19T06:03:00;3.33;;;1.02;;
74777;SDS011;63298;53.164;8.610;2022-10-19T06:05:25;6.82;;;1.30;;
74777;SDS011;63298;53.164;8.610;2022-10-19T06:07:51;9.18;;;1.15;;
74777;SDS011;63298;53.164;8.610;2022-10-19T06:10:16;9.25;;;0.93;;
74777;SDS011;63298;53.164;8.610;2022-10-19T06:12:41;11.10;;;1.00;;
74777;SDS011;63298;53.164;8.610;2022-10-19T06:15:07;5.90;;;1.33;;
74777;SDS011;63298;53.164;8.610;2022-10-19T06:17:32;2.30;;;0.95;;
74777;SDS011;63298;53.164;8.610;2022-10-19T06:19:58;3.78;;;0.80;;
74777;SDS011;63298;53.164;8.610;2022-10-19T06:22:23;1.85;;;0.52;;
74777;SDS011;63298;53.164;8.610;2022-10-19T06:24:49;6.20;;;1.23;;
74777;SDS011;63298;53.164;8.610;2022-10-19T06:27:14;5.97;;;0.80;;
74777;SDS011;63298;53.164;8.610;2022-10-19T06:29:39;7.93;;;0.90;;
74777;SDS011;63298;53.164;8.610;2022-10-19T06:32:05;9.38;;;0.95;;
74777;SDS011;63298;53.164;8.610;2022-10-19T06:34:30;4.65;;;0.90;;
74777;SDS011;63298;53.164;8.610;2022-10-19T06:36:56;3.47;;;0.98;;
74777;SDS011;63298;53.164;8.610;2022-10-19T06:39:21;8.98;;;1.13;;
74777;SDS011;63298;53.164;8.610;2022-10-19T06:41:47;5.55;;;0.98;;
74777;SDS011;63298;53.164;8.610;2022-10-19T06:44:12;3.25;;;0.63;;
74777;SDS011;63298;53.164;8.610;2022-10-19T06:46:38;7.05;;;0.80;;
74777;SDS011;63298;53.164;8.610;2022-10-19T06:49:03;8.07;;;0.88;;
74777;SDS011;63298;53.164;8.610;2022-10-19T06:51:29;6.00;;;1.00;;
74777;SDS011;63298;53.164;8.610;2022-10-19T06:53:55;3.25;;;1.05;;
74777;SDS011;63298;53.164;8.610;2022-10-19T06:56:20;7.68;;;1.10;;
74777;SDS011;63298;53.164;8.610;2022-10-19T06:58:47;6.00;;;0.80;;
74777;SDS011;63298;53.164;8.610;2022-10-19T07:01:12;6.30;;;1.10;;
74777;SDS011;63298;53.164;8.610;2022-10-19T07:03:38;5.07;;;1.13;;
74777;SDS011;63298;53.164;8.610;2022-10-19T07:06:05;9.15;;;1.15;;
74777;SDS011;63298;53.164;8.610;2022-10-19T07:08:33;8.63;;;1.73;;
74777;SDS011;63298;53.164;8.610;2022-10-19T07:11:01;8.13;;;1.15;;
74777;SDS011;63298;53.164;8.610;2022-10-19T07:13:28;7.90;;;1.00;;
74777;SDS011;63298;53.164;8.610;2022-10-19T07:15:58;4.13;;;1.08;;
74777;SDS011;63298;53.164;8.610;2022-10-19T07:18:25;6.03;;;0.93;;
74777;SDS011;63298;53.164;8.610;2022-10-19T07:20:58;5.63;;;1.17;;
74777;SDS011;63298;53.164;8.610;2022-10-19T07:23:26;5.15;;;1.13;;
74777;SDS011;63298;53.164;8.610;2022-10-19T07:25:53;8.13;;;1.52;;
74777;SDS011;63298;53.164;8.610;2022-10-19T07:28:19;5.03;;;0.80;;
74777;SDS011;63298;53.164;8.610;2022-10-19T07:30:46;5.80;;;1.00;;
74777;SDS011;63298;53.164;8.610;2022-10-19T07:33:12;9.50;;;1.25;;
74777;SDS011;63298;53.164;8.610;2022-10-19T07:35:37;12.77;;;1.20;;
74777;SDS011;63298;53.164;8.610;2022-10-19T07:38:02;9.88;;;1.40;;
74777;SDS011;63298;53.164;8.610;2022-10-19T07:40:28;9.82;;;1.00;;
74777;SDS011;63298;53.164;8.610;2022-10-19T07:42:53;4.03;;;0.80;;
74777;SDS011;63298;53.164;8.610;2022-10-19T07:45:18;9.63;;;1.30;;
74777;SDS011;63298;53.164;8.610;2022-10-19T07:47:44;9.38;;;0.75;;
74777;SDS011;63298;53.164;8.610;2022-10-19T07:50:10;8.05;;;1.00;;
74777;SDS011;63298;53.164;8.610;2022-10-19T07:52:35;3.78;;;0.88;;
74777;SDS011;63298;53.164;8.610;2022-10-19T07:55:00;8.02;;;1.27;;
74777;SDS011;63298;53.164;8.610;2022-10-19T07:57:26;8.23;;;1.33;;
74777;SDS011;63298;53.164;8.610;2022-10-19T07:59:51;4.40;;;1.10;;
74777;SDS011;63298;53.164;8.610;2022-10-19T08:02:17;4.20;;;0.82;;
74777;SDS011;63298;53.164;8.610;2022-10-19T08:04:42;10.77;;;1.38;;
74777;SDS011;63298;53.164;8.610;2022-10-19T08:07:08;3.00;;;0.70;;
74777;SDS011;63298;53.164;8.610;2022-10-19T08:09:34;9.45;;;2.03;;
74777;SDS011;63298;53.164;8.610;2022-10-19T08:12:00;5.10;;;1.10;;
74777;SDS011;63298;53.164;8.610;2022-10-19T08:14:25;12.10;;;1.05;;
74777;SDS011;63298;53.164;8.610;2022-10-19T08:16:51;12.75;;;0.98;;
74777;SDS011;63298;53.164;8.610;2022-10-19T08:19:16;12.60;;;1.27;;
74777;SDS011;63298;53.164;8.610;2022-10-19T08:21:42;10.15;;;1.20;;
74777;SDS011;63298;53.164;8.610;2022-10-19T08:24:09;5.20;;;0.75;;
74777;SDS011;63298;53.164;8.610;2022-10-19T08:26:36;4.40;;;0.88;;
74777;SDS011;63298;53.164;8.610;2022-10-19T08:29:07;7.60;;;0.90;;
74777;SDS011;63298;53.164;8.610;2022-10-19T08:31:43;10.32;;;1.00;;
74777;SDS011;63298;53.164;8.610;2022-10-19T08:34:09;7.32;;;1.05;;
74777;SDS011;63298;53.164;8.610;2022-10-19T08:36:36;6.95;;;2.22;;
74777;SDS011;63298;53.164;8.610;2022-10-19T08:39:02;8.68;;;1.23;;
74777;SDS011;63298;53.164;8.610;2022-10-19T08:47:46;5.72;;;0.90;;
74777;SDS011;63298;53.164;8.610;2022-10-19T08:50:25;12.20;;;1.33;;
74777;SDS011;63298;53.164;8.610;2022-10-19T08:55:39;11.75;;;0.70;;
74777;SDS011;63298;53.164;8.610;2022-10-19T09:01:13;10.65;;;1.27;;
74777;SDS011;63298;53.164;8.610;2022-10-19T09:04:05;3.75;;;0.95;;
74777;SDS011;63298;53.164;8.610;2022-10-19T09:06:44;1.75;;;0.80;;
74777;SDS011;63298;53.164;8.610;2022-10-19T09:09:17;3.35;;;0.88;;
74777;SDS011;63298;53.164;8.610;2022-10-19T09:11:46;9.43;;;0.85;;
74777;SDS011;63298;53.164;8.610;2022-10-19T09:17:11;4.05;;;0.80;;
74777;SDS011;63298;53.164;8.610;2022-10-19T09:19:39;2.33;;;0.60;;
74777;SDS011;63298;53.164;8.610;2022-10-19T09:24:44;4.82;;;0.95;;
74777;SDS011;63298;53.164;8.610;2022-10-19T09:27:26;4.03;;;0.80;;
74777;SDS011;63298;53.164;8.610;2022-10-19T09:30:32;3.50;;;0.98;;
74777;SDS011;63298;53.164;8.610;2022-10-19T09:32:57;8.95;;;1.35;;
74777;SDS011;63298;53.164;8.610;2022-10-19T09:35:37;4.78;;;0.93;;
74777;SDS011;63298;53.164;8.610;2022-10-19T09:38:07;3.50;;;0.70;;
74777;SDS011;63298;53.164;8.610;2022-10-19T09:40:35;3.58;;;0.60;;
74777;SDS011;63298;53.164;8.610;2022-10-19T09:43:00;9.77;;;1.17;;
74777;SDS011;63298;53.164;8.610;2022-10-19T09:47:57;3.15;;;0.70;;
74777;SDS011;63298;53.164;8.610;2022-10-19T09:50:26;3.53;;;0.82;;
74777;SDS011;63298;53.164;8.610;2022-10-19T09:52:55;6.05;;;1.00;;
74777;SDS011;63298;53.164;8.610;2022-10-19T09:55:25;5.68;;;1.00;;
74777;SDS011;63298;53.164;8.610;2022-10-19T09:57:58;6.80;;;1.50;;
74777;SDS011;63298;53.164;8.610;2022-10-19T10:00:36;10.02;;;1.00;;
74777;SDS011;63298;53.164;8.610;2022-10-19T10:03:04;5.70;;;1.00;;
74777;SDS011;63298;53.164;8.610;2022-10-19T10:05:37;2.20;;;1.15;;
74777;SDS011;63298;53.164;8.610;2022-10-19T10:08:11;6.25;;;0.85;;
74777;SDS011;63298;53.164;8.610;2022-10-19T10:10:42;5.45;;;1.13;;
74777;SDS011;63298;53.164;8.610;2022-10-19T10:13:18;2.95;;;0.65;;
74777;SDS011;63298;53.164;8.610;2022-10-19T10:15:49;3.70;;;0.80;;
74777;SDS011;63298;53.164;8.610;2022-10-19T10:18:20;6.25;;;0.90;;
74777;SDS011;63298;53.164;8.610;2022-10-19T10:21:03;8.80;;;1.02;;
74777;SDS011;63298;53.164;8.610;2022-10-19T10:23:39;3.55;;;0.63;;
74777;SDS011;63298;53.164;8.610;2022-10-19T10:26:13;3.40;;;0.75;;
74777;SDS011;63298;53.164;8.610;2022-10-19T10:28:45;3.80;;;1.02;;
74777;SDS011;63298;53.164;8.610;2022-10-19T10:31:12;6.07;;;0.75;;
74777;SDS011;63298;53.164;8.610;2022-10-19T10:33:38;6.63;;;1.00;;
74777;SDS011;63298;53.164;8.610;2022-10-19T10:36:06;6.13;;;0.73;;
74777;SDS011;63298;53.164;8.610;2022-10-19T10:38:34;6.25;;;0.95;;
74777;SDS011;63298;53.164;8.610;2022-10-19T10:41:24;8.30;;;0.88;;
74777;SDS011;63298;53.164;8.610;2022-10-19T10:43:59;3.08;;;0.73;;
74777;SDS011;63298;53.164;8.610;2022-10-19T10:46:28;7.32;;;1.20;;
74777;SDS011;63298;53.164;8.610;2022-10-19T10:49:00;5.95;;;0.85;;
74777;SDS011;63298;53.164;8.610;2022-10-19T10:51:38;5.57;;;1.08;;
74777;SDS011;63298;53.164;8.610;2022-10-19T10:54:09;5.40;;;0.80;;
74777;SDS011;63298;53.164;8.610;2022-10-19T10:56:58;1.65;;;0.60;;
74777;SDS011;63298;53.164;8.610;2022-10-19T10:59:39;3.20;;;0.73;;
74777;SDS011;63298;53.164;8.610;2022-10-19T11:02:34;4.60;;;1.15;;
74777;SDS011;63298;53.164;8.610;2022-10-19T11:05:14;3.20;;;0.90;;
74777;SDS011;63298;53.164;8.610;2022-10-19T11:10:58;8.52;;;0.85;;
74777;SDS011;63298;53.164;8.610;2022-10-19T11:13:30;5.28;;;0.98;;
74777;SDS011;63298;53.164;8.610;2022-10-19T11:16:03;3.58;;;0.80;;
74777;SDS011;63298;53.164;8.610;2022-10-19T11:18:40;6.22;;;0.80;;
74777;SDS011;63298;53.164;8.610;2022-10-19T11:21:11;4.07;;;0.88;;
74777;SDS011;63298;53.164;8.610;2022-10-19T11:23:44;3.67;;;1.05;;
74777;SDS011;63298;53.164;8.610;2022-10-19T11:31:59;8.32;;;0.82;;
74777;SDS011;63298;53.164;8.610;2022-10-19T11:37:19;3.58;;;0.73;;
74777;SDS011;63298;53.164;8.610;2022-10-19T11:40:00;6.05;;;1.33;;
74777;SDS011;63298;53.164;8.610;2022-10-19T11:50:57;3.75;;;0.85;;
74777;SDS011;63298;53.164;8.610;2022-10-19T11:56:30;8.30;;;1.75;;
74777;SDS011;63298;53.164;8.610;2022-10-19T11:59:12;8.25;;;1.63;;
74777;SDS011;63298;53.164;8.610;2022-10-19T12:04:52;6.13;;;1.23;;
74777;SDS011;63298;53.164;8.610;2022-10-19T12:13:25;6.00;;;0.90;;
74777;SDS011;63298;53.164;8.610;2022-10-19T12:15:57;5.75;;;1.92;;
74777;SDS011;63298;53.164;8.610;2022-10-19T12:18:29;6.97;;;1.15;;
74777;SDS011;63298;53.164;8.610;2022-10-19T12:21:07;5.00;;;1.00;;
74777;SDS011;63298;53.164;8.610;2022-10-19T12:26:09;5.57;;;1.20;;
74777;SDS011;63298;53.164;8.610;2022-10-19T12:28:49;2.67;;;0.77;;
74777;SDS011;63298;53.164;8.610;2022-10-19T12:31:20;1.70;;;0.88;;
74777;SDS011;63298;53.164;8.610;2022-10-19T12:47:20;4.88;;;1.27;;
74777;SDS011;63298;53.164;8.610;2022-10-19T12:49:48;4.43;;;0.73;;
74777;SDS011;63298;53.164;8.610;2022-10-19T12:57:41;5.78;;;0.75;;
74777;SDS011;63298;53.164;8.610;2022-10-19T13:00:19;3.00;;;0.98;;
74777;SDS011;63298;53.164;8.610;2022-10-19T13:02:59;3.65;;;0.82;;
74777;SDS011;63298;53.164;8.610;2022-10-19T13:05:29;1.98;;;1.05;;
74777;SDS011;63298;53.164;8.610;2022-10-19T13:07:56;6.85;;;1.30;;
74777;SDS011;63298;53.164;8.610;2022-10-19T13:10:25;9.63;;;0.90;;
74777;SDS011;63298;53.164;8.610;2022-10-19T13:12:52;2.97;;;0.90;;
74777;SDS011;63298;53.164;8.610;2022-10-19T13:16:01;5.20;;;1.30;;
74777;SDS011;63298;53.164;8.610;2022-10-19T13:40:37;2.08;;;0.80;;
74777;SDS011;63298;53.164;8.610;2022-10-19T13:43:21;4.57;;;1.10;;
74777;SDS011;63298;53.164;8.610;2022-10-19T13:57:05;6.50;;;0.98;;
74777;SDS011;63298;53.164;8.610;2022-10-19T14:07:23;4.22;;;1.02;;
74777;SDS011;63298;53.164;8.610;2022-10-19T14:09:59;3.70;;;0.80;;
74777;SDS011;63298;53.164;8.610;2022-10-19T14:12:30;3.30;;;1.10;;
74777;SDS011;63298;53.164;8.610;2022-10-19T14:14:59;6.72;;;1.10;;
74777;SDS011;63298;53.164;8.610;2022-10-19T14:17:25;6.67;;;1.23;;
74777;SDS011;63298;53.164;8.610;2022-10-19T14:19:55;2.40;;;0.60;;
74777;SDS011;63298;53.164;8.610;2022-10-19T14:22:31;5.80;;;1.83;;
74777;SDS011;63298;53.164;8.610;2022-10-19T14:24:59;4.20;;;0.95;;
74777;SDS011;63298;53.164;8.610;2022-10-19T14:28:03;3.30;;;0.90;;
74777;SDS011;63298;53.164;8.610;2022-10-19T14:30:31;2.63;;;0.95;;
74777;SDS011;63298;53.164;8.610;2022-10-19T14:33:00;3.75;;;0.80;;
74777;SDS011;63298;53.164;8.610;2022-10-19T14:35:32;4.05;;;0.73;;
74777;SDS011;63298;53.164;8.610;2022-10-19T14:38:01;2.95;;;0.90;;
74777;SDS011;63298;53.164;8.610;2022-10-19T14:40:30;5.45;;;1.15;;
74777;SDS011;63298;53.164;8.610;2022-10-19T14:43:18;8.90;;;1.20;;
74777;SDS011;63298;53.164;8.610;2022-10-19T14:48:27;3.90;;;1.08;;
74777;SDS011;63298;53.164;8.610;2022-10-19T14:50:53;4.10;;;0.90;;
74777;SDS011;63298;53.164;8.610;2022-10-19T14:56:13;3.80;;;0.82;;
74777;SDS011;63298;53.164;8.610;2022-10-19T14:58:47;4.57;;;1.17;;
74777;SDS011;63298;53.164;8.610;2022-10-19T15:01:19;2.63;;;0.80;;
74777;SDS011;63298;53.164;8.610;2022-10-19T15:03:45;3.10;;;1.25;;
74777;SDS011;63298;53.164;8.610;2022-10-19T15:06:33;5.88;;;1.00;;
74777;SDS011;63298;53.164;8.610;2022-10-19T15:08:59;5.78;;;0.95;;
74777;SDS011;63298;53.164;8.610;2022-10-19T15:11:37;2.35;;;0.65;;
74777;SDS011;63298;53.164;8.610;2022-10-19T15:16:40;1.42;;;0.88;;
74777;SDS011;63298;53.164;8.610;2022-10-19T15:19:18;3.95;;;1.10;;
74777;SDS011;63298;53.164;8.610;2022-10-19T15:22:36;3.30;;;1.10;;
74777;SDS011;63298;53.164;8.610;2022-10-19T15:24:37;3.50;;;1.23;;
74777;SDS011;63298;53.164;8.610;2022-10-19T15:27:07;3.60;;;1.20;;
74777;SDS011;63298;53.164;8.610;2022-10-19T15:29:34;2.58;;;1.00;;
74777;SDS011;63298;53.164;8.610;2022-10-19T15:32:13;6.70;;;1.10;;
74777;SDS011;63298;53.164;8.610;2022-10-19T15:34:40;4.95;;;0.90;;
74777;SDS011;63298;53.164;8.610;2022-10-19T15:37:12;3.83;;;0.80;;
74777;SDS011;63298;53.164;8.610;2022-10-19T15:39:42;4.43;;;0.95;;
74777;SDS011;63298;53.164;8.610;2022-10-19T15:42:20;1.98;;;0.68;;
74777;SDS011;63298;53.164;8.610;2022-10-19T15:44:57;4.93;;;1.00;;
74777;SDS011;63298;53.164;8.610;2022-10-19T15:47:23;4.25;;;0.77;;
74777;SDS011;63298;53.164;8.610;2022-10-19T15:52:18;5.03;;;1.48;;
74777;SDS011;63298;53.164;8.610;2022-10-19T15:54:49;7.22;;;1.65;;
74777;SDS011;63298;53.164;8.610;2022-10-19T15:57:29;8.02;;;1.50;;
74777;SDS011;63298;53.164;8.610;2022-10-19T15:59:57;5.35;;;0.98;;
74777;SDS011;63298;53.164;8.610;2022-10-19T16:02:24;4.53;;;0.90;;
74777;SDS011;63298;53.164;8.610;2022-10-19T16:04:50;4.45;;;0.90;;
74777;SDS011;63298;53.164;8.610;2022-10-19T16:07:18;5.50;;;1.00;;
74777;SDS011;63298;53.164;8.610;2022-10-19T16:09:49;4.68;;;1.00;;
74777;SDS011;63298;53.164;8.610;2022-10-19T16:12:14;4.55;;;1.27;;
74777;SDS011;63298;53.164;8.610;2022-10-19T16:14:40;8.27;;;1.40;;
74777;SDS011;63298;53.164;8.610;2022-10-19T16:17:05;10.20;;;1.45;;
74777;SDS011;63298;53.164;8.610;2022-10-19T16:19:31;2.67;;;1.42;;
74777;SDS011;63298;53.164;8.610;2022-10-19T16:21:57;8.00;;;1.70;;
74777;SDS011;63298;53.164;8.610;2022-10-19T16:24:22;3.55;;;1.40;;
74777;SDS011;63298;53.164;8.610;2022-10-19T16:26:47;2.08;;;1.25;;
74777;SDS011;63298;53.164;8.610;2022-10-19T16:29:13;4.55;;;1.30;;
74777;SDS011;63298;53.164;8.610;2022-10-19T16:31:38;6.75;;;1.23;;
74777;SDS011;63298;53.164;8.610;2022-10-19T16:34:04;6.65;;;1.15;;
74777;SDS011;63298;53.164;8.610;2022-10-19T16:36:29;8.27;;;1.00;;
74777;SDS011;63298;53.164;8.610;2022-10-19T16:38:54;6.38;;;0.98;;
74777;SDS011;63298;53.164;8.610;2022-10-19T16:41:20;5.90;;;1.38;;
74777;SDS011;63298;53.164;8.610;2022-10-19T16:43:46;3.25;;;1.20;;
74777;SDS011;63298;53.164;8.610;2022-10-19T16:46:11;4.93;;;0.93;;
74777;SDS011;63298;53.164;8.610;2022-10-19T16:48:36;4.78;;;1.15;;
74777;SDS011;63298;53.164;8.610;2022-10-19T16:53:31;6.50;;;1.48;;
74777;SDS011;63298;53.164;8.610;2022-10-19T16:56:02;5.82;;;1.58;;
74777;SDS011;63298;53.164;8.610;2022-10-19T16:58:30;3.47;;;1.42;;
74777;SDS011;63298;53.164;8.610;2022-10-19T17:00:56;4.25;;;1.25;;
74777;SDS011;63298;53.164;8.610;2022-10-19T17:03:22;3.95;;;1.75;;
74777;SDS011;63298;53.164;8.610;2022-10-19T17:05:47;5.63;;;1.70;;
74777;SDS011;63298;53.164;8.610;2022-10-19T17:08:13;6.38;;;1.65;;
74777;SDS011;63298;53.164;8.610;2022-10-19T17:10:38;7.78;;;3.97;;
74777;SDS011;63298;53.164;8.610;2022-10-19T17:13:04;11.90;;;2.45;;
74777;SDS011;63298;53.164;8.610;2022-10-19T17:15:29;5.45;;;2.67;;
74777;SDS011;63298;53.164;8.610;2022-10-19T17:17:55;5.22;;;1.90;;
74777;SDS011;63298;53.164;8.610;2022-10-19T17:20:20;8.52;;;2.03;;
74777;SDS011;63298;53.164;8.610;2022-10-19T17:22:46;4.10;;;1.60;;
74777;SDS011;63298;53.164;8.610;2022-10-19T17:25:15;6.28;;;2.20;;
74777;SDS011;63298;53.164;8.610;2022-10-19T17:27:40;4.28;;;2.35;;
74777;SDS011;63298;53.164;8.610;2022-10-19T17:30:06;8.02;;;2.35;;
74777;SDS011;63298;53.164;8.610;2022-10-19T17:32:32;5.30;;;2.90;;
74777;SDS011;63298;53.164;8.610;2022-10-19T17:34:57;9.50;;;3.27;;
74777;SDS011;63298;53.164;8.610;2022-10-19T17:37:23;7.88;;;3.40;;
74777;SDS011;63298;53.164;8.610;2022-10-19T17:39:49;7.15;;;2.90;;